sensor_id;sensor_type;location;lat;lon;timestamp;temperature;humidity
10270;DHT22;70826;50.930;5.334;2023-06-24T00:01:53;28.20;87.60
10270;DHT22;70826;50.930;5.334;2023-06-24T00:04:21;28.30;87.10
10270;DHT22;70826;50.930;5.334;2023-06-24T00:06:53;28.20;87.00
10270;DHT22;70826;50.930;5.334;2023-06-24T00:09:24;28.20;87.00
10270;DHT22;70826;50.930;5.334;2023-06-24T00:11:52;28.20;87.10
10270;DHT22;70826;50.930;5.334;2023-06-24T00:14:18;28.20;87.00
10270;DHT22;70826;50.930;5.334;2023-06-24T00:16:46;28.30;87.00
10270;DHT22;70826;50.930;5.334;2023-06-24T00:19:14;28.20;87.00
10270;DHT22;70826;50.930;5.334;2023-06-24T00:21:41;28.30;87.10
10270;DHT22;70826;50.930;5.334;2023-06-24T00:24:07;28.30;87.10
10270;DHT22;70826;50.930;5.334;2023-06-24T00:26:35;28.30;87.10
10270;DHT22;70826;50.930;5.334;2023-06-24T00:29:03;28.20;87.10
10270;DHT22;70826;50.930;5.334;2023-06-24T00:31:29;28.20;87.00
10270;DHT22;70826;50.930;5.334;2023-06-24T00:34:00;28.20;87.00
10270;DHT22;70826;50.930;5.334;2023-06-24T00:36:25;28.20;87.00
10270;DHT22;70826;50.930;5.334;2023-06-24T00:38:52;28.30;87.10
10270;DHT22;70826;50.930;5.334;2023-06-24T00:41:23;28.20;87.10
10270;DHT22;70826;50.930;5.334;2023-06-24T00:43:48;28.20;87.10
10270;DHT22;70826;50.930;5.334;2023-06-24T00:46:19;28.20;87.10
10270;DHT22;70826;50.930;5.334;2023-06-24T00:48:45;28.20;87.10
10270;DHT22;70826;50.930;5.334;2023-06-24T00:51:15;28.20;87.10
10270;DHT22;70826;50.930;5.334;2023-06-24T00:53:43;28.20;87.10
10270;DHT22;70826;50.930;5.334;2023-06-24T00:56:12;28.20;87.10
10270;DHT22;70826;50.930;5.334;2023-06-24T00:58:44;28.20;87.10
10270;DHT22;70826;50.930;5.334;2023-06-24T01:01:15;28.20;87.10
10270;DHT22;70826;50.930;5.334;2023-06-24T01:03:43;28.20;87.10
10270;DHT22;70826;50.930;5.334;2023-06-24T01:06:14;28.20;87.20
10270;DHT22;70826;50.930;5.334;2023-06-24T01:08:42;28.20;87.20
10270;DHT22;70826;50.930;5.334;2023-06-24T01:11:08;28.20;87.50
10270;DHT22;70826;50.930;5.334;2023-06-24T01:13:36;28.20;87.80
10270;DHT22;70826;50.930;5.334;2023-06-24T01:16:10;28.20;87.20
10270;DHT22;70826;50.930;5.334;2023-06-24T01:18:48;28.20;87.20
10270;DHT22;70826;50.930;5.334;2023-06-24T01:21:28;28.20;87.20
10270;DHT22;70826;50.930;5.334;2023-06-24T01:33:04;28.20;87.20
10270;DHT22;70826;50.930;5.334;2023-06-24T01:35:38;28.20;87.20
10270;DHT22;70826;50.930;5.334;2023-06-24T01:38:09;28.20;87.20
10270;DHT22;70826;50.930;5.334;2023-06-24T01:40:43;28.20;87.30
10270;DHT22;70826;50.930;5.334;2023-06-24T01:43:10;28.20;87.30
10270;DHT22;70826;50.930;5.334;2023-06-24T01:45:45;28.20;87.30
10270;DHT22;70826;50.930;5.334;2023-06-24T01:48:23;28.20;87.30
10270;DHT22;70826;50.930;5.334;2023-06-24T01:51:06;28.20;87.40
10270;DHT22;70826;50.930;5.334;2023-06-24T01:53:36;28.20;87.40
10270;DHT22;70826;50.930;5.334;2023-06-24T01:56:06;28.20;87.40
10270;DHT22;70826;50.930;5.334;2023-06-24T01:58:34;28.20;87.40
10270;DHT22;70826;50.930;5.334;2023-06-24T02:01:03;28.20;87.40
10270;DHT22;70826;50.930;5.334;2023-06-24T02:03:32;28.20;87.40
10270;DHT22;70826;50.930;5.334;2023-06-24T02:05:59;28.20;87.40
10270;DHT22;70826;50.930;5.334;2023-06-24T02:08:36;28.20;87.40
10270;DHT22;70826;50.930;5.334;2023-06-24T02:11:04;28.20;87.40
10270;DHT22;70826;50.930;5.334;2023-06-24T02:13:33;28.20;87.40
10270;DHT22;70826;50.930;5.334;2023-06-24T02:16:08;28.20;87.40
10270;DHT22;70826;50.930;5.334;2023-06-24T02:18:38;28.20;87.40
10270;DHT22;70826;50.930;5.334;2023-06-24T02:21:08;28.20;87.40
10270;DHT22;70826;50.930;5.334;2023-06-24T02:23:37;28.20;87.40
10270;DHT22;70826;50.930;5.334;2023-06-24T02:26:07;28.20;87.40
10270;DHT22;70826;50.930;5.334;2023-06-24T02:28:37;28.20;88.00
10270;DHT22;70826;50.930;5.334;2023-06-24T02:31:08;28.20;87.40
10270;DHT22;70826;50.930;5.334;2023-06-24T02:33:34;28.20;87.40
10270;DHT22;70826;50.930;5.334;2023-06-24T02:36:00;28.20;87.40
10270;DHT22;70826;50.930;5.334;2023-06-24T02:38:26;28.20;87.40
10270;DHT22;70826;50.930;5.334;2023-06-24T02:40:52;28.20;87.40
10270;DHT22;70826;50.930;5.334;2023-06-24T02:43:20;28.20;87.40
10270;DHT22;70826;50.930;5.334;2023-06-24T02:45:47;28.20;87.40
10270;DHT22;70826;50.930;5.334;2023-06-24T02:48:13;28.20;87.40
10270;DHT22;70826;50.930;5.334;2023-06-24T02:50:43;28.20;87.40
10270;DHT22;70826;50.930;5.334;2023-06-24T02:53:11;28.20;87.40
10270;DHT22;70826;50.930;5.334;2023-06-24T02:55:40;28.20;87.40
10270;DHT22;70826;50.930;5.334;2023-06-24T02:58:06;28.20;87.40
10270;DHT22;70826;50.930;5.334;2023-06-24T03:00:34;28.20;87.40
10270;DHT22;70826;50.930;5.334;2023-06-24T03:03:02;28.20;87.40
10270;DHT22;70826;50.930;5.334;2023-06-24T03:05:32;28.20;87.40
10270;DHT22;70826;50.930;5.334;2023-06-24T03:08:03;28.20;87.40
10270;DHT22;70826;50.930;5.334;2023-06-24T03:10:29;28.20;87.40
10270;DHT22;70826;50.930;5.334;2023-06-24T03:12:58;28.20;87.40
10270;DHT22;70826;50.930;5.334;2023-06-24T03:15:24;28.20;87.30
10270;DHT22;70826;50.930;5.334;2023-06-24T03:17:50;28.20;87.30
10270;DHT22;70826;50.930;5.334;2023-06-24T03:20:16;28.20;87.30
10270;DHT22;70826;50.930;5.334;2023-06-24T03:22:45;28.20;87.30
10270;DHT22;70826;50.930;5.334;2023-06-24T03:25:15;28.20;87.30
10270;DHT22;70826;50.930;5.334;2023-06-24T03:27:46;28.10;87.30
10270;DHT22;70826;50.930;5.334;2023-06-24T03:30:12;28.20;87.30
10270;DHT22;70826;50.930;5.334;2023-06-24T03:32:40;28.20;87.30
10270;DHT22;70826;50.930;5.334;2023-06-24T03:35:16;28.20;87.30
10270;DHT22;70826;50.930;5.334;2023-06-24T03:37:47;28.20;87.40
10270;DHT22;70826;50.930;5.334;2023-06-24T03:40:17;28.10;87.30
10270;DHT22;70826;50.930;5.334;2023-06-24T03:42:43;28.10;87.30
10270;DHT22;70826;50.930;5.334;2023-06-24T03:45:09;28.10;87.30
10270;DHT22;70826;50.930;5.334;2023-06-24T03:47:38;28.20;87.30
10270;DHT22;70826;50.930;5.334;2023-06-24T03:50:04;28.20;87.40
10270;DHT22;70826;50.930;5.334;2023-06-24T03:52:30;28.10;87.30
10270;DHT22;70826;50.930;5.334;2023-06-24T03:54:56;28.10;87.30
10270;DHT22;70826;50.930;5.334;2023-06-24T03:57:24;28.10;87.30
10270;DHT22;70826;50.930;5.334;2023-06-24T03:59:52;28.10;87.40
10270;DHT22;70826;50.930;5.334;2023-06-24T04:02:18;28.10;87.30
10270;DHT22;70826;50.930;5.334;2023-06-24T04:04:44;28.10;88.00
10270;DHT22;70826;50.930;5.334;2023-06-24T04:07:10;28.10;87.30
10270;DHT22;70826;50.930;5.334;2023-06-24T04:09:36;28.10;87.30
10270;DHT22;70826;50.930;5.334;2023-06-24T04:12:04;28.10;87.40
10270;DHT22;70826;50.930;5.334;2023-06-24T04:14:30;28.10;87.40
10270;DHT22;70826;50.930;5.334;2023-06-24T04:16:59;28.10;87.40
10270;DHT22;70826;50.930;5.334;2023-06-24T04:19:29;28.10;87.40
10270;DHT22;70826;50.930;5.334;2023-06-24T04:21:55;28.10;87.40
10270;DHT22;70826;50.930;5.334;2023-06-24T04:24:21;28.10;87.40
10270;DHT22;70826;50.930;5.334;2023-06-24T04:26:49;28.10;87.40
10270;DHT22;70826;50.930;5.334;2023-06-24T04:29:15;28.10;87.40
10270;DHT22;70826;50.930;5.334;2023-06-24T04:31:41;28.10;87.40
10270;DHT22;70826;50.930;5.334;2023-06-24T04:34:08;28.10;87.40
10270;DHT22;70826;50.930;5.334;2023-06-24T04:36:37;28.10;87.40
10270;DHT22;70826;50.930;5.334;2023-06-24T04:39:04;28.10;87.40
10270;DHT22;70826;50.930;5.334;2023-06-24T04:41:30;28.10;87.40
10270;DHT22;70826;50.930;5.334;2023-06-24T04:43:58;28.10;87.40
10270;DHT22;70826;50.930;5.334;2023-06-24T04:46:26;28.10;87.40
10270;DHT22;70826;50.930;5.334;2023-06-24T04:48:51;28.10;87.40
10270;DHT22;70826;50.930;5.334;2023-06-24T04:51:19;28.10;87.40
10270;DHT22;70826;50.930;5.334;2023-06-24T04:53:47;28.10;87.40
10270;DHT22;70826;50.930;5.334;2023-06-24T04:56:16;28.10;87.40
10270;DHT22;70826;50.930;5.334;2023-06-24T04:58:43;28.10;87.40
10270;DHT22;70826;50.930;5.334;2023-06-24T05:01:09;28.10;87.40
10270;DHT22;70826;50.930;5.334;2023-06-24T05:03:36;28.00;87.30
10270;DHT22;70826;50.930;5.334;2023-06-24T05:06:01;28.00;87.30
10270;DHT22;70826;50.930;5.334;2023-06-24T05:08:28;28.00;87.30
10270;DHT22;70826;50.930;5.334;2023-06-24T05:10:54;28.00;87.30
10270;DHT22;70826;50.930;5.334;2023-06-24T05:13:20;28.10;87.30
10270;DHT22;70826;50.930;5.334;2023-06-24T05:15:48;28.00;87.20
10270;DHT22;70826;50.930;5.334;2023-06-24T05:18:14;28.00;87.20
10270;DHT22;70826;50.930;5.334;2023-06-24T05:20:41;28.00;87.20
10270;DHT22;70826;50.930;5.334;2023-06-24T05:23:06;28.00;87.10
10270;DHT22;70826;50.930;5.334;2023-06-24T05:25:32;28.00;87.10
10270;DHT22;70826;50.930;5.334;2023-06-24T05:28:03;28.00;87.10
10270;DHT22;70826;50.930;5.334;2023-06-24T05:30:33;28.00;87.10
10270;DHT22;70826;50.930;5.334;2023-06-24T05:33:01;28.00;87.10
10270;DHT22;70826;50.930;5.334;2023-06-24T05:35:33;28.00;87.00
10270;DHT22;70826;50.930;5.334;2023-06-24T05:38:05;28.00;87.00
10270;DHT22;70826;50.930;5.334;2023-06-24T05:40:31;28.00;87.00
10270;DHT22;70826;50.930;5.334;2023-06-24T05:43:01;28.00;86.90
10270;DHT22;70826;50.930;5.334;2023-06-24T05:45:28;28.00;86.90
10270;DHT22;70826;50.930;5.334;2023-06-24T05:47:54;28.00;86.90
10270;DHT22;70826;50.930;5.334;2023-06-24T05:50:21;28.00;86.80
10270;DHT22;70826;50.930;5.334;2023-06-24T05:52:49;28.00;86.70
10270;DHT22;70826;50.930;5.334;2023-06-24T05:55:15;28.00;86.70
10270;DHT22;70826;50.930;5.334;2023-06-24T05:57:44;28.10;86.70
10270;DHT22;70826;50.930;5.334;2023-06-24T06:00:10;28.00;86.70
10270;DHT22;70826;50.930;5.334;2023-06-24T06:02:39;28.00;86.60
10270;DHT22;70826;50.930;5.334;2023-06-24T06:05:09;28.00;86.60
10270;DHT22;70826;50.930;5.334;2023-06-24T06:07:35;28.00;87.20
10270;DHT22;70826;50.930;5.334;2023-06-24T06:10:06;28.00;86.50
10270;DHT22;70826;50.930;5.334;2023-06-24T06:12:32;28.00;86.50
10270;DHT22;70826;50.930;5.334;2023-06-24T06:15:01;28.00;86.50
10270;DHT22;70826;50.930;5.334;2023-06-24T06:17:32;28.00;86.50
10270;DHT22;70826;50.930;5.334;2023-06-24T06:20:00;28.00;86.40
10270;DHT22;70826;50.930;5.334;2023-06-24T06:22:31;28.00;86.40
10270;DHT22;70826;50.930;5.334;2023-06-24T06:24:57;28.00;86.40
10270;DHT22;70826;50.930;5.334;2023-06-24T06:27:25;28.00;86.30
10270;DHT22;70826;50.930;5.334;2023-06-24T06:29:51;28.00;86.30
10270;DHT22;70826;50.930;5.334;2023-06-24T06:32:17;28.00;86.90
10270;DHT22;70826;50.930;5.334;2023-06-24T06:34:43;28.00;86.20
10270;DHT22;70826;50.930;5.334;2023-06-24T06:37:13;28.00;86.10
10270;DHT22;70826;50.930;5.334;2023-06-24T06:39:39;28.00;86.10
10270;DHT22;70826;50.930;5.334;2023-06-24T06:42:10;28.00;86.10
10270;DHT22;70826;50.930;5.334;2023-06-24T06:44:36;28.00;86.10
10270;DHT22;70826;50.930;5.334;2023-06-24T06:47:08;28.00;86.10
10270;DHT22;70826;50.930;5.334;2023-06-24T06:49:33;28.00;86.10
10270;DHT22;70826;50.930;5.334;2023-06-24T06:52:01;28.00;86.00
10270;DHT22;70826;50.930;5.334;2023-06-24T06:54:31;28.00;86.00
10270;DHT22;70826;50.930;5.334;2023-06-24T06:57:03;28.00;85.90
10270;DHT22;70826;50.930;5.334;2023-06-24T06:59:31;28.00;85.90
10270;DHT22;70826;50.930;5.334;2023-06-24T07:01:57;28.00;85.80
10270;DHT22;70826;50.930;5.334;2023-06-24T07:04:25;28.00;85.80
10270;DHT22;70826;50.930;5.334;2023-06-24T07:06:50;28.00;85.80
10270;DHT22;70826;50.930;5.334;2023-06-24T07:09:16;28.00;85.80
10270;DHT22;70826;50.930;5.334;2023-06-24T07:11:42;28.00;85.70
10270;DHT22;70826;50.930;5.334;2023-06-24T07:14:08;28.00;85.60
10270;DHT22;70826;50.930;5.334;2023-06-24T07:16:34;28.00;85.50
10270;DHT22;70826;50.930;5.334;2023-06-24T07:19:00;28.00;85.50
10270;DHT22;70826;50.930;5.334;2023-06-24T07:21:25;28.00;85.40
10270;DHT22;70826;50.930;5.334;2023-06-24T07:23:56;28.00;85.30
10270;DHT22;70826;50.930;5.334;2023-06-24T07:26:27;28.00;85.30
10270;DHT22;70826;50.930;5.334;2023-06-24T07:28:56;28.00;85.30
10270;DHT22;70826;50.930;5.334;2023-06-24T07:31:25;28.00;85.20
10270;DHT22;70826;50.930;5.334;2023-06-24T07:33:53;28.00;85.20
10270;DHT22;70826;50.930;5.334;2023-06-24T07:36:23;28.00;85.10
10270;DHT22;70826;50.930;5.334;2023-06-24T07:38:49;28.00;85.00
10270;DHT22;70826;50.930;5.334;2023-06-24T07:41:15;28.00;85.00
10270;DHT22;70826;50.930;5.334;2023-06-24T07:43:41;28.00;85.00
10270;DHT22;70826;50.930;5.334;2023-06-24T07:46:10;28.00;85.00
10270;DHT22;70826;50.930;5.334;2023-06-24T07:48:35;28.00;85.00
10270;DHT22;70826;50.930;5.334;2023-06-24T07:51:01;28.00;84.90
10270;DHT22;70826;50.930;5.334;2023-06-24T07:53:30;28.00;84.80
10270;DHT22;70826;50.930;5.334;2023-06-24T07:55:56;28.00;84.70
10270;DHT22;70826;50.930;5.334;2023-06-24T07:58:25;28.00;84.70
10270;DHT22;70826;50.930;5.334;2023-06-24T08:00:53;28.00;84.60
10270;DHT22;70826;50.930;5.334;2023-06-24T08:03:22;28.00;84.50
10270;DHT22;70826;50.930;5.334;2023-06-24T08:05:52;28.00;84.30
10270;DHT22;70826;50.930;5.334;2023-06-24T08:08:18;27.90;84.20
10270;DHT22;70826;50.930;5.334;2023-06-24T08:10:48;28.00;84.20
10270;DHT22;70826;50.930;5.334;2023-06-24T08:13:14;28.00;84.10
10270;DHT22;70826;50.930;5.334;2023-06-24T08:15:40;28.00;84.10
10270;DHT22;70826;50.930;5.334;2023-06-24T08:18:08;27.90;84.00
10270;DHT22;70826;50.930;5.334;2023-06-24T08:20:36;27.90;84.00
10270;DHT22;70826;50.930;5.334;2023-06-24T08:23:04;28.00;84.10
10270;DHT22;70826;50.930;5.334;2023-06-24T08:25:32;28.00;84.10
10270;DHT22;70826;50.930;5.334;2023-06-24T08:28:00;28.00;84.20
10270;DHT22;70826;50.930;5.334;2023-06-24T08:30:28;28.00;84.20
10270;DHT22;70826;50.930;5.334;2023-06-24T08:32:55;27.90;84.00
10270;DHT22;70826;50.930;5.334;2023-06-24T08:35:23;28.00;84.40
10270;DHT22;70826;50.930;5.334;2023-06-24T08:37:49;27.90;83.40
10270;DHT22;70826;50.930;5.334;2023-06-24T08:40:14;27.90;83.20
10270;DHT22;70826;50.930;5.334;2023-06-24T08:42:45;28.00;83.30
10270;DHT22;70826;50.930;5.334;2023-06-24T08:45:13;27.90;83.20
10270;DHT22;70826;50.930;5.334;2023-06-24T08:47:40;28.00;83.40
10270;DHT22;70826;50.930;5.334;2023-06-24T08:50:16;28.00;83.40
10270;DHT22;70826;50.930;5.334;2023-06-24T08:52:51;27.90;83.30
10270;DHT22;70826;50.930;5.334;2023-06-24T08:55:22;27.90;83.30
10270;DHT22;70826;50.930;5.334;2023-06-24T08:57:50;28.00;83.30
10270;DHT22;70826;50.930;5.334;2023-06-24T09:00:16;28.00;83.40
10270;DHT22;70826;50.930;5.334;2023-06-24T09:02:47;27.90;83.40
10270;DHT22;70826;50.930;5.334;2023-06-24T09:05:15;27.90;83.50
10270;DHT22;70826;50.930;5.334;2023-06-24T09:07:48;27.90;83.20
10270;DHT22;70826;50.930;5.334;2023-06-24T09:10:32;27.90;82.90
10270;DHT22;70826;50.930;5.334;2023-06-24T09:13:03;27.90;82.80
10270;DHT22;70826;50.930;5.334;2023-06-24T09:15:30;27.90;82.70
10270;DHT22;70826;50.930;5.334;2023-06-24T09:17:59;27.90;82.80
10270;DHT22;70826;50.930;5.334;2023-06-24T09:20:36;27.90;82.80
10270;DHT22;70826;50.930;5.334;2023-06-24T09:23:06;27.90;82.70
10270;DHT22;70826;50.930;5.334;2023-06-24T09:25:32;28.00;82.80
10270;DHT22;70826;50.930;5.334;2023-06-24T09:28:03;27.90;82.70
10270;DHT22;70826;50.930;5.334;2023-06-24T09:30:32;27.90;82.80
10270;DHT22;70826;50.930;5.334;2023-06-24T09:33:00;27.90;82.80
10270;DHT22;70826;50.930;5.334;2023-06-24T09:35:27;27.90;82.70
10270;DHT22;70826;50.930;5.334;2023-06-24T09:37:54;27.90;82.60
10270;DHT22;70826;50.930;5.334;2023-06-24T09:40:23;27.90;83.20
10270;DHT22;70826;50.930;5.334;2023-06-24T09:42:54;27.90;82.50
10270;DHT22;70826;50.930;5.334;2023-06-24T09:45:25;27.90;82.30
10270;DHT22;70826;50.930;5.334;2023-06-24T09:47:52;28.00;82.20
10270;DHT22;70826;50.930;5.334;2023-06-24T09:50:21;27.90;82.00
10270;DHT22;70826;50.930;5.334;2023-06-24T09:52:51;27.90;81.80
10270;DHT22;70826;50.930;5.334;2023-06-24T09:55:20;28.00;81.70
10270;DHT22;70826;50.930;5.334;2023-06-24T09:57:47;27.90;81.50
10270;DHT22;70826;50.930;5.334;2023-06-24T10:00:19;27.90;81.30
10270;DHT22;70826;50.930;5.334;2023-06-24T10:02:47;28.00;81.30
10270;DHT22;70826;50.930;5.334;2023-06-24T10:05:17;27.90;81.00
10270;DHT22;70826;50.930;5.334;2023-06-24T10:07:43;27.90;80.90
10270;DHT22;70826;50.930;5.334;2023-06-24T10:10:11;27.90;80.90
10270;DHT22;70826;50.930;5.334;2023-06-24T10:12:38;27.90;81.00
10270;DHT22;70826;50.930;5.334;2023-06-24T10:15:05;27.90;81.20
10270;DHT22;70826;50.930;5.334;2023-06-24T10:17:31;27.90;81.00
10270;DHT22;70826;50.930;5.334;2023-06-24T10:19:57;27.90;81.20
10270;DHT22;70826;50.930;5.334;2023-06-24T10:22:23;27.90;80.90
10270;DHT22;70826;50.930;5.334;2023-06-24T10:24:51;27.90;80.60
10270;DHT22;70826;50.930;5.334;2023-06-24T10:27:19;28.00;80.50
10270;DHT22;70826;50.930;5.334;2023-06-24T10:29:52;27.90;80.40
10270;DHT22;70826;50.930;5.334;2023-06-24T10:32:24;28.00;80.50
10270;DHT22;70826;50.930;5.334;2023-06-24T10:34:56;27.90;80.20
10270;DHT22;70826;50.930;5.334;2023-06-24T10:37:26;27.90;80.10
10270;DHT22;70826;50.930;5.334;2023-06-24T10:40:00;27.90;80.20
10270;DHT22;70826;50.930;5.334;2023-06-24T10:42:43;27.90;80.10
10270;DHT22;70826;50.930;5.334;2023-06-24T10:47:51;27.90;79.80
10270;DHT22;70826;50.930;5.334;2023-06-24T10:50:25;27.90;80.00
10270;DHT22;70826;50.930;5.334;2023-06-24T10:52:53;27.90;79.90
10270;DHT22;70826;50.930;5.334;2023-06-24T10:55:28;27.90;80.00
10270;DHT22;70826;50.930;5.334;2023-06-24T10:58:07;27.90;79.90
10270;DHT22;70826;50.930;5.334;2023-06-24T11:00:38;27.90;80.10
10270;DHT22;70826;50.930;5.334;2023-06-24T11:03:17;27.90;79.80
10270;DHT22;70826;50.930;5.334;2023-06-24T11:05:48;27.90;80.00
10270;DHT22;70826;50.930;5.334;2023-06-24T11:08:14;27.90;79.60
10270;DHT22;70826;50.930;5.334;2023-06-24T11:10:47;28.00;80.00
10270;DHT22;70826;50.930;5.334;2023-06-24T11:13:15;27.90;79.90
10270;DHT22;70826;50.930;5.334;2023-06-24T11:15:45;27.90;79.60
10270;DHT22;70826;50.930;5.334;2023-06-24T11:18:11;27.90;79.80
10270;DHT22;70826;50.930;5.334;2023-06-24T11:20:39;27.90;79.70
10270;DHT22;70826;50.930;5.334;2023-06-24T11:23:09;27.90;79.70
10270;DHT22;70826;50.930;5.334;2023-06-24T11:25:41;28.00;79.70
10270;DHT22;70826;50.930;5.334;2023-06-24T11:28:17;28.00;79.80
10270;DHT22;70826;50.930;5.334;2023-06-24T11:30:48;27.90;79.60
10270;DHT22;70826;50.930;5.334;2023-06-24T11:33:31;28.00;79.80
10270;DHT22;70826;50.930;5.334;2023-06-24T11:35:56;28.00;79.80
10270;DHT22;70826;50.930;5.334;2023-06-24T11:38:22;28.00;79.70
10270;DHT22;70826;50.930;5.334;2023-06-24T11:40:48;28.00;79.50
10270;DHT22;70826;50.930;5.334;2023-06-24T11:43:16;28.00;79.70
10270;DHT22;70826;50.930;5.334;2023-06-24T11:45:47;28.00;79.90
10270;DHT22;70826;50.930;5.334;2023-06-24T11:48:15;28.00;79.70
10270;DHT22;70826;50.930;5.334;2023-06-24T11:50:44;27.90;80.10
10270;DHT22;70826;50.930;5.334;2023-06-24T11:53:10;28.00;79.70
10270;DHT22;70826;50.930;5.334;2023-06-24T11:55:38;28.00;79.90
10270;DHT22;70826;50.930;5.334;2023-06-24T11:58:06;28.00;79.70
10270;DHT22;70826;50.930;5.334;2023-06-24T12:00:39;28.00;79.70
10270;DHT22;70826;50.930;5.334;2023-06-24T12:03:13;28.00;79.70
10270;DHT22;70826;50.930;5.334;2023-06-24T12:05:40;28.00;79.70
10270;DHT22;70826;50.930;5.334;2023-06-24T12:08:13;28.00;79.70
10270;DHT22;70826;50.930;5.334;2023-06-24T12:10:43;28.00;79.80
10270;DHT22;70826;50.930;5.334;2023-06-24T12:13:09;28.00;79.90
10270;DHT22;70826;50.930;5.334;2023-06-24T12:15:35;28.00;79.80
10270;DHT22;70826;50.930;5.334;2023-06-24T12:18:07;28.00;80.00
10270;DHT22;70826;50.930;5.334;2023-06-24T12:20:35;28.00;79.90
10270;DHT22;70826;50.930;5.334;2023-06-24T12:23:02;28.00;79.90
10270;DHT22;70826;50.930;5.334;2023-06-24T12:25:31;28.00;79.80
10270;DHT22;70826;50.930;5.334;2023-06-24T12:27:57;28.00;79.70
10270;DHT22;70826;50.930;5.334;2023-06-24T12:30:25;28.00;79.70
10270;DHT22;70826;50.930;5.334;2023-06-24T12:32:53;28.00;80.00
10270;DHT22;70826;50.930;5.334;2023-06-24T12:35:21;28.00;80.10
10270;DHT22;70826;50.930;5.334;2023-06-24T12:37:53;28.00;79.70
10270;DHT22;70826;50.930;5.334;2023-06-24T12:40:21;28.00;80.10
10270;DHT22;70826;50.930;5.334;2023-06-24T12:42:52;28.00;80.10
10270;DHT22;70826;50.930;5.334;2023-06-24T12:45:18;28.00;80.40
10270;DHT22;70826;50.930;5.334;2023-06-24T12:47:46;28.00;80.10
10270;DHT22;70826;50.930;5.334;2023-06-24T12:50:12;28.00;79.80
10270;DHT22;70826;50.930;5.334;2023-06-24T12:52:41;28.00;79.90
10270;DHT22;70826;50.930;5.334;2023-06-24T12:55:10;28.00;79.80
10270;DHT22;70826;50.930;5.334;2023-06-24T12:57:38;28.00;80.00
10270;DHT22;70826;50.930;5.334;2023-06-24T13:00:05;28.00;80.00
10270;DHT22;70826;50.930;5.334;2023-06-24T13:02:31;28.00;80.10
10270;DHT22;70826;50.930;5.334;2023-06-24T13:04:57;28.00;80.30
10270;DHT22;70826;50.930;5.334;2023-06-24T13:07:26;28.00;80.50
10270;DHT22;70826;50.930;5.334;2023-06-24T13:09:54;28.00;80.40
10270;DHT22;70826;50.930;5.334;2023-06-24T13:12:20;28.00;80.70
10270;DHT22;70826;50.930;5.334;2023-06-24T13:14:48;28.00;80.70
10270;DHT22;70826;50.930;5.334;2023-06-24T13:17:14;28.00;80.10
10270;DHT22;70826;50.930;5.334;2023-06-24T13:19:43;28.00;80.20
10270;DHT22;70826;50.930;5.334;2023-06-24T13:22:09;28.00;80.20
10270;DHT22;70826;50.930;5.334;2023-06-24T13:24:37;28.00;80.30
10270;DHT22;70826;50.930;5.334;2023-06-24T13:27:03;28.00;80.00
10270;DHT22;70826;50.930;5.334;2023-06-24T13:29:29;28.10;80.30
10270;DHT22;70826;50.930;5.334;2023-06-24T13:31:55;28.00;80.30
10270;DHT22;70826;50.930;5.334;2023-06-24T13:34:21;28.00;80.30
10270;DHT22;70826;50.930;5.334;2023-06-24T13:36:53;28.00;80.20
10270;DHT22;70826;50.930;5.334;2023-06-24T13:39:19;28.00;80.20
10270;DHT22;70826;50.930;5.334;2023-06-24T13:41:47;28.10;80.40
10270;DHT22;70826;50.930;5.334;2023-06-24T13:44:13;28.00;80.30
10270;DHT22;70826;50.930;5.334;2023-06-24T13:46:42;28.00;80.40
10270;DHT22;70826;50.930;5.334;2023-06-24T13:49:10;28.00;80.30
10270;DHT22;70826;50.930;5.334;2023-06-24T13:51:36;28.00;80.30
10270;DHT22;70826;50.930;5.334;2023-06-24T13:54:04;28.00;80.10
10270;DHT22;70826;50.930;5.334;2023-06-24T13:56:30;28.00;80.30
10270;DHT22;70826;50.930;5.334;2023-06-24T13:58:56;28.00;80.00
10270;DHT22;70826;50.930;5.334;2023-06-24T14:01:22;28.00;80.30
10270;DHT22;70826;50.930;5.334;2023-06-24T14:03:49;28.00;80.30
10270;DHT22;70826;50.930;5.334;2023-06-24T14:06:16;28.00;80.10
10270;DHT22;70826;50.930;5.334;2023-06-24T14:08:45;28.00;80.10
10270;DHT22;70826;50.930;5.334;2023-06-24T14:11:14;28.00;80.00
10270;DHT22;70826;50.930;5.334;2023-06-24T14:13:40;28.00;80.30
10270;DHT22;70826;50.930;5.334;2023-06-24T14:16:09;28.00;80.10
10270;DHT22;70826;50.930;5.334;2023-06-24T14:18:35;28.00;79.80
10270;DHT22;70826;50.930;5.334;2023-06-24T14:21:03;28.00;79.90
10270;DHT22;70826;50.930;5.334;2023-06-24T14:23:29;28.00;80.10
10270;DHT22;70826;50.930;5.334;2023-06-24T14:25:56;28.00;80.20
10270;DHT22;70826;50.930;5.334;2023-06-24T14:28:22;28.00;79.70
10270;DHT22;70826;50.930;5.334;2023-06-24T14:30:48;28.00;79.90
10270;DHT22;70826;50.930;5.334;2023-06-24T14:33:14;28.00;80.20
10270;DHT22;70826;50.930;5.334;2023-06-24T14:35:43;28.00;79.70
10270;DHT22;70826;50.930;5.334;2023-06-24T14:38:11;28.00;79.50
10270;DHT22;70826;50.930;5.334;2023-06-24T14:40:37;28.00;79.20
10270;DHT22;70826;50.930;5.334;2023-06-24T14:43:02;28.00;79.20
10270;DHT22;70826;50.930;5.334;2023-06-24T14:45:33;28.00;79.50
10270;DHT22;70826;50.930;5.334;2023-06-24T14:48:01;28.00;79.50
10270;DHT22;70826;50.930;5.334;2023-06-24T14:50:29;28.00;79.70
10270;DHT22;70826;50.930;5.334;2023-06-24T14:52:58;28.00;79.70
10270;DHT22;70826;50.930;5.334;2023-06-24T14:55:24;28.00;79.30
10270;DHT22;70826;50.930;5.334;2023-06-24T14:57:53;28.00;79.30
10270;DHT22;70826;50.930;5.334;2023-06-24T15:00:21;28.00;79.60
10270;DHT22;70826;50.930;5.334;2023-06-24T15:02:49;28.00;79.70
10270;DHT22;70826;50.930;5.334;2023-06-24T15:05:15;28.00;79.30
10270;DHT22;70826;50.930;5.334;2023-06-24T15:07:41;28.00;79.20
10270;DHT22;70826;50.930;5.334;2023-06-24T15:10:11;28.00;79.00
10270;DHT22;70826;50.930;5.334;2023-06-24T15:12:42;28.00;79.40
10270;DHT22;70826;50.930;5.334;2023-06-24T15:15:08;28.00;78.90
10270;DHT22;70826;50.930;5.334;2023-06-24T15:17:34;28.00;79.00
10270;DHT22;70826;50.930;5.334;2023-06-24T15:20:00;28.00;79.20
10270;DHT22;70826;50.930;5.334;2023-06-24T15:22:28;28.00;79.60
10270;DHT22;70826;50.930;5.334;2023-06-24T15:24:58;28.00;79.30
10270;DHT22;70826;50.930;5.334;2023-06-24T15:27:25;28.00;79.40
10270;DHT22;70826;50.930;5.334;2023-06-24T15:29:55;28.00;78.90
10270;DHT22;70826;50.930;5.334;2023-06-24T15:32:21;28.00;78.90
10270;DHT22;70826;50.930;5.334;2023-06-24T15:34:49;28.00;79.40
10270;DHT22;70826;50.930;5.334;2023-06-24T15:37:17;28.00;79.70
10270;DHT22;70826;50.930;5.334;2023-06-24T15:39:45;28.10;80.40
10270;DHT22;70826;50.930;5.334;2023-06-24T15:42:13;28.10;79.80
10270;DHT22;70826;50.930;5.334;2023-06-24T15:44:40;28.00;79.50
10270;DHT22;70826;50.930;5.334;2023-06-24T15:47:05;28.10;79.50
10270;DHT22;70826;50.930;5.334;2023-06-24T15:49:31;28.10;79.30